Time;durP1;ratioP1;P1;durP2;ratioP2;P2;SDS_P1;SDS_P2;PMS_P1;PMS_P2;Temp;Humidity;BMP_temperature;BMP_pressure;BME280_temperature;BME280_humidity;BME280_pressure;Samples;Min_cycle;Max_cycle;Signal;HPM_P1;HPM_P2
2022/09/07 00:01:49;;;;;;;8.00;2.10;;;;;;;;;;4957234;28;20035;-75
2022/09/07 00:04:15;;;;;;;7.38;2.30;;;;;;;;;;4957224;29;20047;-75
2022/09/07 00:06:41;;;;;;;7.60;2.10;;;;;;;;;;4956961;29;20043;-74
2022/09/07 00:09:07;;;;;;;17.15;2.05;;;;;;;;;;4956403;29;20036;-73
2022/09/07 00:11:33;;;;;;;12.48;2.60;;;;;;;;;;4953345;28;20135;-74
2022/09/07 00:13:59;;;;;;;9.27;1.80;;;;;;;;;;4952733;29;20106;-74
2022/09/07 00:16:27;;;;;;;8.60;1.85;;;;;;;;;;4952426;28;20070;-74
2022/09/07 00:18:56;;;;;;;7.85;2.03;;;;;;;;;;4952309;28;20062;-74
2022/09/07 00:21:23;;;;;;;7.68;2.25;;;;;;;;;;4951636;28;20035;-73
2022/09/07 00:23:49;;;;;;;6.72;2.17;;;;;;;;;;4952400;29;20057;-74
2022/09/07 00:26:16;;;;;;;9.75;2.15;;;;;;;;;;4952184;29;20027;-75
2022/09/07 00:28:42;;;;;;;7.43;2.15;;;;;;;;;;4952667;28;20081;-73
2022/09/07 00:31:10;;;;;;;10.02;2.10;;;;;;;;;;4952574;28;20027;-73
2022/09/07 00:33:36;;;;;;;11.07;2.30;;;;;;;;;;4951878;28;20039;-74
2022/09/07 00:36:02;;;;;;;6.95;1.98;;;;;;;;;;4952946;28;20494;-73
2022/09/07 00:38:28;;;;;;;3.50;2.00;;;;;;;;;;4953512;28;20449;-72
2022/09/07 00:40:54;;;;;;;6.47;2.10;;;;;;;;;;4952706;28;20019;-73
2022/09/07 00:43:34;;;;;;;6.68;1.83;;;;;;;;;;4954054;29;20415;-73
2022/09/07 00:46:00;;;;;;;4.85;1.88;;;;;;;;;;4951032;29;20281;-73
2022/09/07 00:48:49;;;;;;;7.75;2.22;;;;;;;;;;4952379;28;20031;-73
2022/09/07 00:51:17;;;;;;;6.43;2.15;;;;;;;;;;4956849;28;20035;-73
2022/09/07 00:53:46;;;;;;;7.22;2.70;;;;;;;;;;4952116;28;20031;-73
2022/09/07 00:56:12;;;;;;;5.97;2.22;;;;;;;;;;4950361;29;20031;-73
2022/09/07 00:58:39;;;;;;;8.68;2.30;;;;;;;;;;4952083;29;20042;-74
2022/09/07 01:01:06;;;;;;;7.53;2.00;;;;;;;;;;4951758;28;20089;-74
2022/09/07 01:03:36;;;;;;;6.15;2.28;;;;;;;;;;4952185;29;20469;-74
2022/09/07 01:06:06;;;;;;;10.50;2.15;;;;;;;;;;4951822;28;20384;-74
2022/09/07 01:08:34;;;;;;;6.63;2.17;;;;;;;;;;4952103;28;20232;-74
2022/09/07 01:11:01;;;;;;;6.40;2.13;;;;;;;;;;4952300;28;20034;-75
2022/09/07 01:13:27;;;;;;;5.57;2.13;;;;;;;;;;4954013;28;20516;-72
2022/09/07 01:16:06;;;;;;;7.82;2.30;;;;;;;;;;4957316;28;20031;-74
2022/09/07 01:18:50;;;;;;;7.03;2.30;;;;;;;;;;4951927;28;20093;-74
2022/09/07 01:21:18;;;;;;;9.40;2.35;;;;;;;;;;4951463;28;20027;-74
2022/09/07 01:23:54;;;;;;;5.78;2.30;;;;;;;;;;4951761;29;20641;-74
2022/09/07 01:26:39;;;;;;;4.72;2.20;;;;;;;;;;4951530;28;20077;-74
2022/09/07 01:29:14;;;;;;;6.47;2.25;;;;;;;;;;4950143;29;20031;-74
2022/09/07 01:31:54;;;;;;;10.02;2.42;;;;;;;;;;4951467;28;20023;-73
2022/09/07 01:34:24;;;;;;;6.20;2.15;;;;;;;;;;4951871;29;20092;-73
2022/09/07 01:36:50;;;;;;;5.38;2.40;;;;;;;;;;4950907;28;20027;-74
2022/09/07 01:39:17;;;;;;;10.15;2.75;;;;;;;;;;4951542;29;20034;-74
2022/09/07 01:41:51;;;;;;;6.93;2.22;;;;;;;;;;4952606;28;20034;-74
2022/09/07 01:44:17;;;;;;;6.80;2.25;;;;;;;;;;4951253;28;20027;-73
2022/09/07 01:46:49;;;;;;;12.02;2.50;;;;;;;;;;4951412;28;20038;-74
2022/09/07 01:49:18;;;;;;;5.45;2.13;;;;;;;;;;4951569;28;20398;-74
2022/09/07 01:51:46;;;;;;;10.15;2.05;;;;;;;;;;4952880;28;20069;-75
2022/09/07 01:54:18;;;;;;;6.10;2.40;;;;;;;;;;4955241;28;20031;-74
2022/09/07 01:56:46;;;;;;;4.35;2.05;;;;;;;;;;4959073;28;20034;-74
2022/09/07 01:59:24;;;;;;;14.60;2.50;;;;;;;;;;4957760;28;20074;-74
2022/09/07 02:01:53;;;;;;;8.95;2.28;;;;;;;;;;4957503;28;20392;-75
2022/09/07 02:04:32;;;;;;;13.48;2.40;;;;;;;;;;4955309;28;20110;-74
2022/09/07 02:07:04;;;;;;;5.20;2.72;;;;;;;;;;4951011;28;20447;-73
2022/09/07 02:09:37;;;;;;;7.28;2.20;;;;;;;;;;4951630;28;20035;-74
2022/09/07 02:12:06;;;;;;;6.10;2.15;;;;;;;;;;4951305;28;20031;-74
2022/09/07 02:14:40;;;;;;;7.43;2.53;;;;;;;;;;4951186;28;20046;-74
2022/09/07 02:17:13;;;;;;;8.60;2.60;;;;;;;;;;4950946;28;20102;-73
2022/09/07 02:19:42;;;;;;;6.68;2.88;;;;;;;;;;4950869;28;20476;-74
2022/09/07 02:22:11;;;;;;;6.75;2.80;;;;;;;;;;4949744;28;20031;-73
2022/09/07 02:24:39;;;;;;;7.32;3.08;;;;;;;;;;4955964;28;20023;-74
2022/09/07 02:27:10;;;;;;;6.88;2.75;;;;;;;;;;4960369;28;20035;-72
2022/09/07 02:29:37;;;;;;;8.25;2.92;;;;;;;;;;4967169;28;20023;-73
2022/09/07 02:32:03;;;;;;;12.35;3.20;;;;;;;;;;4972135;28;20062;-73
2022/09/07 02:34:29;;;;;;;10.20;3.75;;;;;;;;;;4972973;28;20030;-73
2022/09/07 02:36:56;;;;;;;8.57;2.90;;;;;;;;;;4955512;28;20050;-74
2022/09/07 02:39:22;;;;;;;5.90;2.70;;;;;;;;;;4950576;28;20027;-73
2022/09/07 02:41:48;;;;;;;11.00;2.70;;;;;;;;;;4950476;28;20084;-73
2022/09/07 02:44:19;;;;;;;10.65;3.22;;;;;;;;;;4950539;28;20035;-73
2022/09/07 02:47:03;;;;;;;9.55;2.88;;;;;;;;;;4950367;28;20027;-74
2022/09/07 02:49:45;;;;;;;6.03;3.20;;;;;;;;;;4951456;28;20043;-74
2022/09/07 02:52:19;;;;;;;9.50;2.90;;;;;;;;;;4955161;28;20055;-74
2022/09/07 02:54:45;;;;;;;6.85;2.40;;;;;;;;;;4955795;29;20550;-74
2022/09/07 02:57:19;;;;;;;12.02;2.90;;;;;;;;;;4957164;28;20035;-73
2022/09/07 02:59:53;;;;;;;8.77;2.65;;;;;;;;;;4956886;28;20037;-73
2022/09/07 03:02:21;;;;;;;7.78;3.33;;;;;;;;;;4953739;28;20085;-73
2022/09/07 03:04:54;;;;;;;11.65;3.33;;;;;;;;;;4953603;28;20464;-73
2022/09/07 03:07:30;;;;;;;7.93;2.85;;;;;;;;;;4953496;28;20393;-74
2022/09/07 03:09:57;;;;;;;10.10;3.20;;;;;;;;;;4953658;28;20395;-73
2022/09/07 03:12:23;;;;;;;6.53;3.17;;;;;;;;;;4952419;28;20024;-74
2022/09/07 03:14:49;;;;;;;9.02;3.53;;;;;;;;;;4953573;28;20038;-74
2022/09/07 03:17:15;;;;;;;7.80;3.20;;;;;;;;;;4953157;28;20118;-74
2022/09/07 03:19:41;;;;;;;8.48;3.03;;;;;;;;;;4953481;28;20030;-75
2022/09/07 03:22:07;;;;;;;6.82;2.92;;;;;;;;;;4953539;28;20035;-74
2022/09/07 03:24:33;;;;;;;7.43;2.97;;;;;;;;;;4953296;28;20027;-74
2022/09/07 03:26:59;;;;;;;9.35;3.63;;;;;;;;;;4951930;28;20507;-73
2022/09/07 03:29:25;;;;;;;9.57;3.65;;;;;;;;;;4954250;28;20092;-73
2022/09/07 03:31:51;;;;;;;14.18;3.83;;;;;;;;;;4953768;28;20110;-75
2022/09/07 03:34:17;;;;;;;6.70;3.35;;;;;;;;;;4953754;28;20027;-73
2022/09/07 03:36:43;;;;;;;15.18;4.80;;;;;;;;;;4953292;28;20054;-73
2022/09/07 03:39:11;;;;;;;11.13;3.88;;;;;;;;;;4953656;28;20022;-74
2022/09/07 03:41:37;;;;;;;9.23;3.70;;;;;;;;;;4952593;28;20023;-75
2022/09/07 03:44:06;;;;;;;10.23;3.90;;;;;;;;;;4962778;28;20067;-73
2022/09/07 03:46:33;;;;;;;10.82;3.20;;;;;;;;;;4972980;28;20303;-74
2022/09/07 03:48:59;;;;;;;16.98;6.18;;;;;;;;;;4974479;28;20024;-73
2022/09/07 03:51:25;;;;;;;12.13;5.15;;;;;;;;;;4974583;28;20034;-74
2022/09/07 03:53:51;;;;;;;9.07;4.18;;;;;;;;;;4975005;28;20011;-74
2022/09/07 03:56:21;;;;;;;14.15;5.00;;;;;;;;;;4976146;28;20039;-73
2022/09/07 03:58:47;;;;;;;8.05;3.67;;;;;;;;;;4973674;28;20019;-73
2022/09/07 04:01:14;;;;;;;12.40;4.13;;;;;;;;;;4975907;28;20023;-73
2022/09/07 04:03:40;;;;;;;7.63;3.47;;;;;;;;;;4974688;28;20067;-72
2022/09/07 04:06:07;;;;;;;10.40;4.40;;;;;;;;;;4973577;28;20023;-73
2022/09/07 04:08:33;;;;;;;9.85;4.05;;;;;;;;;;4972077;28;20030;-73
2022/09/07 04:11:00;;;;;;;7.43;3.55;;;;;;;;;;4971707;28;20026;-75
2022/09/07 04:13:27;;;;;;;7.57;3.95;;;;;;;;;;4957423;28;20110;-74
2022/09/07 04:15:53;;;;;;;8.60;4.15;;;;;;;;;;4954068;28;20031;-74
2022/09/07 04:18:19;;;;;;;13.20;3.70;;;;;;;;;;4953605;28;20027;-76
2022/09/07 04:20:45;;;;;;;12.10;4.22;;;;;;;;;;4959329;28;20081;-74
2022/09/07 04:23:11;;;;;;;12.80;4.13;;;;;;;;;;4959905;28;20028;-74
2022/09/07 04:25:37;;;;;;;10.63;3.90;;;;;;;;;;4960759;28;20031;-74
2022/09/07 04:28:03;;;;;;;8.10;4.13;;;;;;;;;;4963553;28;20059;-74
2022/09/07 04:30:29;;;;;;;8.88;4.60;;;;;;;;;;4960946;28;20031;-74
2022/09/07 04:32:55;;;;;;;7.60;4.03;;;;;;;;;;4960514;28;20054;-73
2022/09/07 04:35:21;;;;;;;8.70;4.20;;;;;;;;;;4958375;28;20027;-73
2022/09/07 04:37:47;;;;;;;10.63;4.05;;;;;;;;;;4956288;28;20030;-74
2022/09/07 04:40:13;;;;;;;11.60;4.60;;;;;;;;;;4954287;28;20117;-74
2022/09/07 04:42:39;;;;;;;10.45;4.20;;;;;;;;;;4953506;28;20034;-75
2022/09/07 04:45:05;;;;;;;16.83;4.68;;;;;;;;;;4959776;28;20069;-74
2022/09/07 04:47:31;;;;;;;10.52;4.28;;;;;;;;;;4962052;28;20032;-74
2022/09/07 04:49:57;;;;;;;13.45;4.32;;;;;;;;;;4971815;28;20046;-74
2022/09/07 04:52:23;;;;;;;12.93;4.13;;;;;;;;;;4971143;28;20030;-74
2022/09/07 04:54:50;;;;;;;9.88;4.50;;;;;;;;;;4968876;28;20517;-75
2022/09/07 04:57:20;;;;;;;10.60;4.28;;;;;;;;;;4963993;28;20039;-74
2022/09/07 04:59:46;;;;;;;8.68;4.53;;;;;;;;;;4962032;28;20032;-75
2022/09/07 05:02:12;;;;;;;15.65;4.82;;;;;;;;;;4962978;28;20345;-75
2022/09/07 05:04:38;;;;;;;12.13;4.68;;;;;;;;;;4963386;28;20039;-74
2022/09/07 05:07:04;;;;;;;10.80;4.88;;;;;;;;;;4963418;28;20114;-75
2022/09/07 05:09:30;;;;;;;14.25;4.20;;;;;;;;;;4962598;28;20023;-75
2022/09/07 05:11:56;;;;;;;10.25;4.22;;;;;;;;;;4962792;28;20055;-74
2022/09/07 05:14:21;;;;;;;8.93;3.90;;;;;;;;;;4961207;28;20034;-75
2022/09/07 05:16:48;;;;;;;9.38;3.83;;;;;;;;;;4959078;28;20069;-73
2022/09/07 05:19:15;;;;;;;17.40;3.70;;;;;;;;;;4953239;28;20058;-74
2022/09/07 05:21:41;;;;;;;16.92;4.68;;;;;;;;;;4953054;28;20083;-74
2022/09/07 05:24:07;;;;;;;22.35;5.45;;;;;;;;;;4952949;28;20387;-73
2022/09/07 05:26:34;;;;;;;14.75;6.00;;;;;;;;;;4952123;28;20042;-74
2022/09/07 05:29:02;;;;;;;13.02;7.32;;;;;;;;;;4951652;28;20481;-74
2022/09/07 05:31:28;;;;;;;11.27;5.30;;;;;;;;;;4952662;28;20076;-75
2022/09/07 05:33:56;;;;;;;12.60;4.20;;;;;;;;;;4953644;28;20118;-73
2022/09/07 05:36:24;;;;;;;14.57;4.57;;;;;;;;;;4955697;28;20468;-74
2022/09/07 05:38:50;;;;;;;14.27;3.92;;;;;;;;;;4956733;28;20031;-74
2022/09/07 05:41:17;;;;;;;8.75;3.85;;;;;;;;;;4954909;28;20030;-74
2022/09/07 05:43:44;;;;;;;8.65;3.90;;;;;;;;;;4952707;28;20102;-73
2022/09/07 05:46:10;;;;;;;12.95;3.95;;;;;;;;;;4955079;28;20042;-74
2022/09/07 05:48:36;;;;;;;12.00;4.18;;;;;;;;;;4952057;28;20075;-74
2022/09/07 05:51:02;;;;;;;11.50;4.32;;;;;;;;;;4951881;28;20034;-74
2022/09/07 05:53:28;;;;;;;17.02;5.03;;;;;;;;;;4953007;28;20031;-72
2022/09/07 05:55:58;;;;;;;15.82;4.35;;;;;;;;;;4954404;28;20512;-72
2022/09/07 05:58:24;;;;;;;11.35;4.47;;;;;;;;;;4953572;28;20019;-74
2022/09/07 06:00:50;;;;;;;11.55;4.15;;;;;;;;;;4952312;28;20057;-73
2022/09/07 06:03:16;;;;;;;14.93;4.18;;;;;;;;;;4951616;28;20499;-72
2022/09/07 06:05:42;;;;;;;13.32;4.53;;;;;;;;;;4951388;28;20031;-72
2022/09/07 06:08:07;;;;;;;14.43;4.50;;;;;;;;;;4956399;28;20035;-74
2022/09/07 06:10:37;;;;;;;13.23;4.80;;;;;;;;;;4971243;28;20043;-74
2022/09/07 06:13:04;;;;;;;15.60;4.25;;;;;;;;;;4956861;28;20130;-73
2022/09/07 06:15:32;;;;;;;12.35;4.20;;;;;;;;;;4952464;28;20042;-74
2022/09/07 06:17:57;;;;;;;19.13;4.57;;;;;;;;;;4949793;29;20034;-73
2022/09/07 06:20:23;;;;;;;13.02;4.72;;;;;;;;;;4951397;28;20368;-73
2022/09/07 06:22:49;;;;;;;8.73;4.15;;;;;;;;;;4956604;28;20548;-73
2022/09/07 06:25:15;;;;;;;17.92;4.32;;;;;;;;;;5051935;28;20478;-73
2022/09/07 06:27:41;;;;;;;7.70;4.00;;;;;;;;;;5051663;28;20029;-75
2022/09/07 06:30:07;;;;;;;9.90;4.55;;;;;;;;;;5051899;28;20044;-74
2022/09/07 06:32:37;;;;;;;11.85;4.65;;;;;;;;;;5055352;28;20032;-74
2022/09/07 06:35:03;;;;;;;19.65;4.80;;;;;;;;;;5056008;28;20024;-74
2022/09/07 06:37:29;;;;;;;13.40;4.35;;;;;;;;;;5055526;28;20029;-75
2022/09/07 06:39:55;;;;;;;19.00;4.80;;;;;;;;;;5055217;28;20326;-74
2022/09/07 06:42:21;;;;;;;16.08;4.43;;;;;;;;;;5055102;28;20017;-73
2022/09/07 06:44:46;;;;;;;10.45;4.03;;;;;;;;;;5055107;28;20449;-72
2022/09/07 06:47:12;;;;;;;10.60;4.43;;;;;;;;;;5054797;28;20587;-74
2022/09/07 06:49:38;;;;;;;13.45;4.63;;;;;;;;;;5055193;28;20147;-74
2022/09/07 06:52:04;;;;;;;10.45;4.50;;;;;;;;;;5055384;28;20033;-75
2022/09/07 06:54:30;;;;;;;8.35;4.53;;;;;;;;;;5055011;28;20039;-74
2022/09/07 06:56:56;;;;;;;16.75;5.45;;;;;;;;;;5053316;28;20033;-74
2022/09/07 06:59:22;;;;;;;7.97;4.30;;;;;;;;;;5054343;28;20036;-74
2022/09/07 07:01:48;;;;;;;11.80;4.75;;;;;;;;;;5053333;28;20017;-74
2022/09/07 07:04:14;;;;;;;14.40;4.80;;;;;;;;;;5055236;28;20025;-75
2022/09/07 07:06:40;;;;;;;17.27;6.75;;;;;;;;;;5054966;28;20112;-75
2022/09/07 07:09:07;;;;;;;21.98;6.55;;;;;;;;;;5055037;28;20036;-74
2022/09/07 07:11:35;;;;;;;16.02;6.22;;;;;;;;;;5056601;28;20032;-76
2022/09/07 07:14:02;;;;;;;15.63;6.00;;;;;;;;;;5075527;28;20021;-75
2022/09/07 07:16:28;;;;;;;25.83;7.65;;;;;;;;;;5078781;28;20017;-74
2022/09/07 07:18:55;;;;;;;23.58;7.50;;;;;;;;;;5077731;28;20057;-73
2022/09/07 07:21:20;;;;;;;14.60;6.82;;;;;;;;;;5069789;28;20052;-74
2022/09/07 07:23:50;;;;;;;25.08;9.07;;;;;;;;;;5072033;28;20028;-77
2022/09/07 07:26:17;;;;;;;16.52;7.03;;;;;;;;;;5070135;28;20024;-72
2022/09/07 07:28:45;;;;;;;15.20;7.03;;;;;;;;;;5068664;28;20127;-75
2022/09/07 07:31:11;;;;;;;17.38;6.90;;;;;;;;;;5069459;28;20028;-75
2022/09/07 07:33:37;;;;;;;21.48;9.75;;;;;;;;;;5068762;28;20033;-74
2022/09/07 07:36:14;;;;;;;20.77;7.00;;;;;;;;;;5065624;28;20025;-75
2022/09/07 07:38:41;;;;;;;26.55;11.15;;;;;;;;;;5061996;28;20195;-75
2022/09/07 07:41:06;;;;;;;17.98;7.30;;;;;;;;;;5056245;28;20404;-74
2022/09/07 07:43:32;;;;;;;28.10;13.02;;;;;;;;;;5057711;28;20021;-75
2022/09/07 07:45:59;;;;;;;16.90;7.88;;;;;;;;;;5056485;28;20191;-74
2022/09/07 07:48:25;;;;;;;17.65;6.85;;;;;;;;;;5055963;28;20405;-75
2022/09/07 07:51:01;;;;;;;21.55;8.10;;;;;;;;;;5053685;28;20044;-74
2022/09/07 07:53:27;;;;;;;22.73;11.32;;;;;;;;;;5054685;28;20175;-74
2022/09/07 07:55:54;;;;;;;19.02;9.02;;;;;;;;;;5054492;28;20080;-75
2022/09/07 07:58:20;;;;;;;17.00;7.78;;;;;;;;;;5054555;28;20021;-76
2022/09/07 08:00:46;;;;;;;20.58;8.60;;;;;;;;;;5054566;28;20450;-75
2022/09/07 08:03:12;;;;;;;11.57;6.28;;;;;;;;;;5054618;28;20146;-75
2022/09/07 08:05:38;;;;;;;38.08;15.23;;;;;;;;;;5054096;28;20025;-75
2022/09/07 08:08:04;;;;;;;18.77;8.45;;;;;;;;;;5055010;28;20021;-74
2022/09/07 08:10:30;;;;;;;13.70;6.60;;;;;;;;;;5054711;28;20064;-75
2022/09/07 08:12:56;;;;;;;27.05;10.05;;;;;;;;;;5060154;28;20111;-75
2022/09/07 08:15:22;;;;;;;23.23;9.68;;;;;;;;;;5055235;28;20017;-75
2022/09/07 08:17:49;;;;;;;23.83;11.52;;;;;;;;;;5053827;28;20028;-74
2022/09/07 08:20:15;;;;;;;29.27;12.93;;;;;;;;;;5053703;28;20037;-74
2022/09/07 08:22:42;;;;;;;17.52;7.40;;;;;;;;;;5054058;28;20048;-74
2022/09/07 08:25:08;;;;;;;23.65;8.55;;;;;;;;;;5055134;28;20017;-74
2022/09/07 08:27:34;;;;;;;23.08;9.98;;;;;;;;;;5058371;28;20084;-74
2022/09/07 08:30:01;;;;;;;19.58;9.20;;;;;;;;;;5062534;28;20033;-74
2022/09/07 08:32:28;;;;;;;12.75;6.80;;;;;;;;;;5054015;28;20029;-74
2022/09/07 08:34:55;;;;;;;22.20;9.73;;;;;;;;;;5053667;28;20036;-74
2022/09/07 08:37:21;;;;;;;17.90;8.55;;;;;;;;;;5065111;28;20078;-74
2022/09/07 08:39:47;;;;;;;13.68;6.13;;;;;;;;;;5059569;28;20021;-75
2022/09/07 08:42:19;;;;;;;15.60;6.55;;;;;;;;;;5055158;28;20095;-74
2022/09/07 08:44:50;;;;;;;19.15;6.85;;;;;;;;;;5054299;28;20033;-75
2022/09/07 08:47:36;;;;;;;18.65;6.95;;;;;;;;;;5054278;28;20082;-74
2022/09/07 08:50:08;;;;;;;20.48;8.30;;;;;;;;;;5053887;28;20470;-74
2022/09/07 08:52:48;;;;;;;15.02;6.85;;;;;;;;;;5053637;28;20040;-76
2022/09/07 08:55:15;;;;;;;15.30;6.68;;;;;;;;;;5052898;28;20053;-74
2022/09/07 08:57:43;;;;;;;20.13;7.18;;;;;;;;;;5051738;28;20021;-76
2022/09/07 09:00:18;;;;;;;15.73;5.80;;;;;;;;;;5052584;28;20474;-74
2022/09/07 09:02:44;;;;;;;12.35;5.97;;;;;;;;;;5054172;28;20029;-77
2022/09/07 09:05:20;;;;;;;12.27;6.10;;;;;;;;;;5053295;28;20382;-75
2022/09/07 09:07:46;;;;;;;13.35;5.60;;;;;;;;;;5053450;28;20338;-76
2022/09/07 09:10:16;;;;;;;16.25;6.15;;;;;;;;;;5052022;28;20029;-75
2022/09/07 09:12:57;;;;;;;13.27;5.90;;;;;;;;;;5054760;28;20100;-74
2022/09/07 09:15:42;;;;;;;21.67;11.43;;;;;;;;;;5052501;28;20025;-75
2022/09/07 09:18:14;;;;;;;20.73;7.93;;;;;;;;;;5053463;28;20106;-76
2022/09/07 09:20:48;;;;;;;16.67;8.73;;;;;;;;;;5051901;28;20041;-74
2022/09/07 09:23:15;;;;;;;22.92;10.32;;;;;;;;;;5053629;28;20064;-75
2022/09/07 09:26:01;;;;;;;14.60;8.20;;;;;;;;;;5052871;28;20060;-75
2022/09/07 09:28:27;;;;;;;14.18;7.47;;;;;;;;;;5054701;28;20371;-76
2022/09/07 09:30:53;;;;;;;21.40;11.20;;;;;;;;;;5053195;28;20043;-74
2022/09/07 09:33:19;;;;;;;15.60;7.80;;;;;;;;;;5053278;28;20057;-76
2022/09/07 09:35:48;;;;;;;20.48;6.80;;;;;;;;;;5054200;28;20029;-77
2022/09/07 09:38:31;;;;;;;15.48;6.30;;;;;;;;;;5055321;28;20021;-75
2022/09/07 09:41:03;;;;;;;12.35;6.20;;;;;;;;;;5057681;28;20017;-74
2022/09/07 09:43:40;;;;;;;19.20;6.43;;;;;;;;;;5053122;28;20504;-75
2022/09/07 09:46:18;;;;;;;14.45;5.30;;;;;;;;;;5054179;28;20025;-76
2022/09/07 09:48:49;;;;;;;17.60;6.13;;;;;;;;;;5061163;28;20037;-73
2022/09/07 09:51:15;;;;;;;14.38;6.40;;;;;;;;;;5061519;28;20384;-74
2022/09/07 09:53:49;;;;;;;14.55;6.18;;;;;;;;;;5053008;28;20040;-75
2022/09/07 09:56:15;;;;;;;15.43;6.27;;;;;;;;;;5052822;28;20079;-73
2022/09/07 09:58:44;;;;;;;10.05;5.68;;;;;;;;;;5053491;28;20732;-74
2022/09/07 10:01:21;;;;;;;14.30;6.20;;;;;;;;;;5052073;28;20064;-72
2022/09/07 10:03:47;;;;;;;17.60;6.22;;;;;;;;;;5052643;28;20359;-73
2022/09/07 10:06:17;;;;;;;15.65;5.90;;;;;;;;;;5054814;28;20354;-73
2022/09/07 10:09:00;;;;;;;23.35;6.50;;;;;;;;;;5058294;28;20029;-75
2022/09/07 10:11:46;;;;;;;18.98;6.38;;;;;;;;;;5059857;28;20025;-74
2022/09/07 10:14:24;;;;;;;12.32;5.82;;;;;;;;;;5061421;28;20040;-74
2022/09/07 10:16:50;;;;;;;13.27;5.75;;;;;;;;;;5059485;28;20060;-74
2022/09/07 10:19:36;;;;;;;14.23;5.68;;;;;;;;;;5056766;28;20021;-75
2022/09/07 10:22:20;;;;;;;10.80;5.18;;;;;;;;;;5056030;28;20104;-74
2022/09/07 10:24:46;;;;;;;13.95;5.35;;;;;;;;;;5056042;28;20047;-73
2022/09/07 10:27:20;;;;;;;16.20;5.70;;;;;;;;;;5056373;28;20101;-75
2022/09/07 10:29:46;;;;;;;10.63;5.57;;;;;;;;;;5056098;28;20048;-76
2022/09/07 10:32:29;;;;;;;13.25;5.65;;;;;;;;;;5056189;28;20067;-75
2022/09/07 10:35:01;;;;;;;14.00;6.88;;;;;;;;;;5054601;28;20120;-75
2022/09/07 10:37:32;;;;;;;12.23;6.30;;;;;;;;;;5054491;28;20021;-76
2022/09/07 10:40:06;;;;;;;16.05;6.32;;;;;;;;;;5056791;28;20017;-76
2022/09/07 10:42:34;;;;;;;19.02;5.93;;;;;;;;;;5055490;28;20025;-76
2022/09/07 10:45:15;;;;;;;21.42;6.03;;;;;;;;;;5056966;28;20025;-76
2022/09/07 10:47:43;;;;;;;11.77;5.57;;;;;;;;;;5059432;28;20099;-77
2022/09/07 10:50:13;;;;;;;18.73;5.95;;;;;;;;;;5059500;28;20056;-75
2022/09/07 10:52:45;;;;;;;23.90;7.00;;;;;;;;;;5057184;28;20045;-76
2022/09/07 10:55:11;;;;;;;16.60;5.68;;;;;;;;;;5056836;28;20062;-75
2022/09/07 10:57:46;;;;;;;12.27;6.63;;;;;;;;;;5056366;28;20107;-74
2022/09/07 11:00:17;;;;;;;10.40;6.07;;;;;;;;;;5054786;28;20478;-75
2022/09/07 11:03:01;;;;;;;13.73;5.63;;;;;;;;;;5058117;28;20040;-74
2022/09/07 11:05:29;;;;;;;14.48;5.70;;;;;;;;;;5058873;28;20032;-77
2022/09/07 11:08:14;;;;;;;15.68;5.95;;;;;;;;;;5059289;28;20048;-74
2022/09/07 11:10:46;;;;;;;7.63;5.13;;;;;;;;;;5057684;28;20025;-76
2022/09/07 11:13:16;;;;;;;11.50;5.15;;;;;;;;;;5058008;28;20052;-76
2022/09/07 11:15:55;;;;;;;10.68;5.40;;;;;;;;;;5056956;28;20025;-75
2022/09/07 11:18:40;;;;;;;9.70;5.80;;;;;;;;;;5056144;28;20025;-76
2022/09/07 11:21:06;;;;;;;;;;;;;;;;;;5060886;28;20029;-77
2022/09/07 11:23:42;;;;;;;14.20;5.93;;;;;;;;;;4993833;28;19937;-77
2022/09/07 11:26:27;;;;;;;20.42;5.53;;;;;;;;;;4955650;28;20027;-76
2022/09/07 11:28:53;;;;;;;;;;;;;;;;;;4955378;28;20485;-75
2022/09/07 11:31:38;;;;;;;11.32;6.30;;;;;;;;;;4956065;28;19906;-75
2022/09/07 11:34:04;;;;;;;;;;;;;;;;;;4956589;28;20460;-76
2022/09/07 11:36:32;;;;;;;14.80;5.90;;;;;;;;;;4957093;28;19917;-77
2022/09/07 11:39:12;;;;;;;11.68;6.15;;;;;;;;;;4956385;28;20024;-76
2022/09/07 11:41:56;;;;;;;9.25;5.40;;;;;;;;;;4956761;28;20023;-77
2022/09/07 11:44:29;;;;;;;18.75;6.88;;;;;;;;;;4956873;28;20088;-77
2022/09/07 11:46:59;;;;;;;10.27;5.80;;;;;;;;;;4955937;28;20086;-75
2022/09/07 11:49:25;;;;;;;11.80;5.45;;;;;;;;;;4955640;28;20023;-76
2022/09/07 11:51:54;;;;;;;13.80;5.40;;;;;;;;;;4958375;28;20396;-77
2022/09/07 11:54:32;;;;;;;15.23;6.07;;;;;;;;;;4959064;28;20034;-77
2022/09/07 11:57:07;;;;;;;10.93;5.93;;;;;;;;;;4957364;28;20392;-75
2022/09/07 11:59:51;;;;;;;13.73;5.53;;;;;;;;;;4956665;28;20038;-76
2022/09/07 12:02:38;;;;;;;12.63;6.00;;;;;;;;;;4957329;28;20443;-75
2022/09/07 12:05:07;;;;;;;12.00;5.95;;;;;;;;;;4959504;28;20023;-75
2022/09/07 12:07:39;;;;;;;16.77;5.43;;;;;;;;;;4956678;28;20461;-76
2022/09/07 12:10:05;;;;;;;10.52;5.20;;;;;;;;;;4956920;28;20034;-75
2022/09/07 12:12:50;;;;;;;10.15;5.20;;;;;;;;;;4957518;28;20034;-76
2022/09/07 12:15:15;;;;;;;;;;;;;;;;;;4956992;28;20034;-74
2022/09/07 12:18:00;;;;;;;12.95;4.65;;;;;;;;;;4955537;28;19911;-75
2022/09/07 12:20:38;;;;;;;8.32;4.28;;;;;;;;;;4953688;28;20043;-75
2022/09/07 12:23:06;;;;;;;18.48;4.90;;;;;;;;;;4964895;23;20500;-71
2022/09/07 12:25:33;;;;;;;7.93;4.45;;;;;;;;;;4933827;29;20069;-71
2022/09/07 12:27:59;;;;;;;16.83;4.93;;;;;;;;;;4934291;28;20066;-71
2022/09/07 12:30:25;;;;;;;11.80;4.25;;;;;;;;;;4933403;28;20020;-73
2022/09/07 12:32:52;;;;;;;13.60;4.70;;;;;;;;;;4933071;28;20046;-71
2022/09/07 12:35:30;;;;;;;10.90;4.90;;;;;;;;;;4933133;28;20032;-72
2022/09/07 12:37:57;;;;;;;14.93;3.83;;;;;;;;;;4932777;29;20039;-71
2022/09/07 12:40:36;;;;;;;9.57;3.92;;;;;;;;;;4929653;28;20038;-71
2022/09/07 12:43:14;;;;;;;8.48;3.72;;;;;;;;;;4932422;29;20119;-70
2022/09/07 12:45:40;;;;;;;9.93;3.88;;;;;;;;;;4932587;29;20542;-72
2022/09/07 12:48:15;;;;;;;6.90;3.13;;;;;;;;;;4932894;28;20052;-72
2022/09/07 12:51:00;;;;;;;6.68;3.70;;;;;;;;;;4932608;29;20034;-72
2022/09/07 12:53:45;;;;;;;11.68;6.47;;;;;;;;;;4936156;28;20056;-72
2022/09/07 12:56:30;;;;;;;9.13;4.13;;;;;;;;;;4934708;28;20447;-71
2022/09/07 12:59:03;;;;;;;7.30;3.75;;;;;;;;;;5000079;28;20602;-71
2022/09/07 13:01:34;;;;;;;6.97;3.35;;;;;;;;;;4999154;28;20028;-71
2022/09/07 13:04:00;;;;;;;8.52;4.15;;;;;;;;;;4931994;29;20031;-71
2022/09/07 13:06:40;;;;;;;8.15;3.83;;;;;;;;;;4931902;29;20044;-72
2022/09/07 13:09:15;;;;;;;8.02;3.70;;;;;;;;;;4932325;29;20034;-72
2022/09/07 13:11:41;;;;;;;7.68;3.63;;;;;;;;;;4932333;29;20435;-71
2022/09/07 13:14:13;;;;;;;6.35;3.50;;;;;;;;;;4934341;29;20032;-70
2022/09/07 13:16:40;;;;;;;5.88;3.28;;;;;;;;;;4933237;29;20032;-72
2022/09/07 13:19:07;;;;;;;6.32;3.75;;;;;;;;;;4932888;28;20019;-71
2022/09/07 13:21:33;;;;;;;9.50;4.30;;;;;;;;;;4933555;28;20032;-71
2022/09/07 13:24:17;;;;;;;7.20;4.68;;;;;;;;;;4933865;28;20040;-73
2022/09/07 13:26:56;;;;;;;8.23;3.47;;;;;;;;;;4932702;28;20055;-73
2022/09/07 13:29:24;;;;;;;12.02;3.85;;;;;;;;;;4933362;29;20024;-74
2022/09/07 13:32:06;;;;;;;6.70;4.65;;;;;;;;;;5000127;28;20028;-73
2022/09/07 13:34:32;;;;;;;11.43;4.53;;;;;;;;;;4935541;28;20053;-75
2022/09/07 13:36:59;;;;;;;8.20;4.32;;;;;;;;;;4934436;29;20094;-72
2022/09/07 13:39:25;;;;;;;8.23;4.32;;;;;;;;;;4933347;29;20077;-70
2022/09/07 13:41:54;;;;;;;5.40;3.70;;;;;;;;;;4935366;29;20069;-77
2022/09/07 13:44:25;;;;;;;6.88;4.18;;;;;;;;;;4939229;29;20392;-73
2022/09/07 13:46:57;;;;;;;12.60;4.28;;;;;;;;;;5004383;28;20086;-72
2022/09/07 13:49:40;;;;;;;7.35;4.15;;;;;;;;;;4937732;28;20102;-73
2022/09/07 13:52:06;;;;;;;9.45;3.80;;;;;;;;;;5003914;28;20085;-73
2022/09/07 13:54:32;;;;;;;11.48;3.92;;;;;;;;;;4933526;29;20031;-72
2022/09/07 13:56:58;;;;;;;8.00;4.72;;;;;;;;;;4932027;29;20112;-73
2022/09/07 13:59:29;;;;;;;8.32;4.90;;;;;;;;;;4931911;29;20186;-70
2022/09/07 14:01:56;;;;;;;7.90;4.82;;;;;;;;;;4931921;28;20028;-70
2022/09/07 14:04:21;;;;;;;11.98;4.80;;;;;;;;;;4931039;29;20028;-70
2022/09/07 14:06:47;;;;;;;7.50;5.47;;;;;;;;;;4931214;29;20038;-71
2022/09/07 14:09:16;;;;;;;8.65;3.70;;;;;;;;;;4933886;29;20036;-71
2022/09/07 14:11:46;;;;;;;9.27;4.20;;;;;;;;;;4935470;28;20043;-70
2022/09/07 14:14:15;;;;;;;8.30;5.18;;;;;;;;;;4932285;29;20034;-71
2022/09/07 14:17:01;;;;;;;6.78;4.32;;;;;;;;;;4939627;28;20126;-70
2022/09/07 14:19:38;;;;;;;15.57;5.70;;;;;;;;;;4931001;28;20032;-69
2022/09/07 14:22:10;;;;;;;7.60;5.25;;;;;;;;;;4931389;29;20055;-71
2022/09/07 14:24:37;;;;;;;10.98;4.78;;;;;;;;;;4931107;29;20380;-71
2022/09/07 14:27:04;;;;;;;11.18;4.95;;;;;;;;;;4930792;29;20028;-71
2022/09/07 14:29:31;;;;;;;9.10;4.75;;;;;;;;;;4931230;29;20108;-74
2022/09/07 14:31:58;;;;;;;13.50;4.82;;;;;;;;;;4930901;29;20104;-70
2022/09/07 14:34:26;;;;;;;8.23;4.57;;;;;;;;;;4932804;29;20103;-71
2022/09/07 14:36:53;;;;;;;9.38;5.22;;;;;;;;;;4931100;29;20511;-71
2022/09/07 14:39:20;;;;;;;10.98;6.13;;;;;;;;;;4931376;29;20032;-71
2022/09/07 14:41:47;;;;;;;9.48;5.30;;;;;;;;;;4931338;29;20107;-71
2022/09/07 14:44:31;;;;;;;7.88;5.15;;;;;;;;;;4930410;29;20020;-70
2022/09/07 14:46:58;;;;;;;10.38;5.13;;;;;;;;;;4929050;29;20019;-71
2022/09/07 14:49:24;;;;;;;8.98;5.05;;;;;;;;;;4930745;29;20098;-72
2022/09/07 14:51:51;;;;;;;11.75;5.68;;;;;;;;;;4930955;29;20071;-71